sensor_id;sensor_type;location;lat;lon;timestamp;pressure;altitude;pressure_sealevel;temperature;humidity
11053;BME280;55230;42.602;23.470;2023-01-31T00:00:24;93021.63;;;-1.52;100.00
11053;BME280;55230;42.602;23.470;2023-01-31T00:02:51;93008.00;;;-1.40;99.64
11053;BME280;55230;42.602;23.470;2023-01-31T00:05:18;93001.22;;;-1.44;99.04
11053;BME280;55230;42.602;23.470;2023-01-31T00:07:45;93017.06;;;-1.34;98.42
11053;BME280;55230;42.602;23.470;2023-01-31T00:10:12;93075.97;;;-1.26;98.06
11053;BME280;55230;42.602;23.470;2023-01-31T00:12:39;92942.50;;;-2.08;98.67
11053;BME280;55230;42.602;23.470;2023-01-31T00:15:07;92974.88;;;-1.76;98.34
11053;BME280;55230;42.602;23.470;2023-01-31T00:17:35;92946.63;;;-2.00;95.42
11053;BME280;55230;42.602;23.470;2023-01-31T00:20:02;93011.09;;;-1.59;94.43
11053;BME280;55230;42.602;23.470;2023-01-31T00:22:28;92998.63;;;-1.58;95.04
11053;BME280;55230;42.602;23.470;2023-01-31T00:24:55;92980.88;;;-1.51;95.52
11053;BME280;55230;42.602;23.470;2023-01-31T00:27:22;92991.44;;;-1.47;95.27
11053;BME280;55230;42.602;23.470;2023-01-31T00:29:49;92875.44;;;-2.28;95.02
11053;BME280;55230;42.602;23.470;2023-01-31T00:32:16;92948.81;;;-1.67;94.47
11053;BME280;55230;42.602;23.470;2023-01-31T00:34:44;92962.00;;;-1.53;94.58
11053;BME280;55230;42.602;23.470;2023-01-31T00:37:10;93034.38;;;-1.15;94.28
11053;BME280;55230;42.602;23.470;2023-01-31T00:39:37;92940.25;;;-2.06;94.06
11053;BME280;55230;42.602;23.470;2023-01-31T00:42:04;92945.53;;;-2.09;96.07
11053;BME280;55230;42.602;23.470;2023-01-31T00:44:31;92756.50;;;-3.28;95.57
11053;BME280;55230;42.602;23.470;2023-01-31T00:46:58;92973.75;;;-1.64;95.67
11053;BME280;55230;42.602;23.470;2023-01-31T00:49:24;93063.88;;;-1.31;96.12
11053;BME280;55230;42.602;23.470;2023-01-31T00:51:52;92946.25;;;-1.95;95.60
11053;BME280;55230;42.602;23.470;2023-01-31T00:54:19;93032.16;;;-1.31;96.11
11053;BME280;55230;42.602;23.470;2023-01-31T00:56:46;93046.91;;;-1.30;95.57
11053;BME280;55230;42.602;23.470;2023-01-31T00:59:13;93026.50;;;-1.33;95.85
11053;BME280;55230;42.602;23.470;2023-01-31T01:01:40;92726.38;;;-3.38;96.72
11053;BME280;55230;42.602;23.470;2023-01-31T01:04:06;92661.69;;;-4.02;96.86
11053;BME280;55230;42.602;23.470;2023-01-31T01:06:33;92831.41;;;-2.87;97.69
11053;BME280;55230;42.602;23.470;2023-01-31T01:09:01;92962.09;;;-1.95;98.44
11053;BME280;55230;42.602;23.470;2023-01-31T01:11:30;92900.28;;;-2.15;98.15
11053;BME280;55230;42.602;23.470;2023-01-31T01:13:58;93002.09;;;-1.79;99.50
11053;BME280;55230;42.602;23.470;2023-01-31T01:16:29;92905.56;;;-2.25;100.00
11053;BME280;55230;42.602;23.470;2023-01-31T01:18:56;93023.97;;;-1.78;99.56
11053;BME280;55230;42.602;23.470;2023-01-31T01:21:24;93013.41;;;-1.85;99.54
11053;BME280;55230;42.602;23.470;2023-01-31T01:23:54;92638.34;;;-4.32;98.36
11053;BME280;55230;42.602;23.470;2023-01-31T01:26:24;92912.03;;;-2.58;99.15
11053;BME280;55230;42.602;23.470;2023-01-31T01:28:52;93027.00;;;-1.80;99.48
11053;BME280;55230;42.602;23.470;2023-01-31T01:31:20;93017.22;;;-1.90;98.87
11053;BME280;55230;42.602;23.470;2023-01-31T01:33:48;93024.75;;;-1.88;98.53
11053;BME280;55230;42.602;23.470;2023-01-31T01:36:16;92934.63;;;-2.50;98.19
11053;BME280;55230;42.602;23.470;2023-01-31T01:38:46;93010.38;;;-1.77;97.83
11053;BME280;55230;42.602;23.470;2023-01-31T01:41:14;93003.59;;;-1.78;96.48
11053;BME280;55230;42.602;23.470;2023-01-31T01:43:45;92881.50;;;-2.56;95.28
11053;BME280;55230;42.602;23.470;2023-01-31T01:46:15;93012.25;;;-1.67;94.53
11053;BME280;55230;42.602;23.470;2023-01-31T01:48:45;92786.59;;;-3.05;92.35
11053;BME280;55230;42.602;23.470;2023-01-31T01:51:13;92626.31;;;-4.19;91.17
11053;BME280;55230;42.602;23.470;2023-01-31T01:53:46;92992.25;;;-1.64;89.23
11053;BME280;55230;42.602;23.470;2023-01-31T01:56:16;92999.31;;;-1.37;88.12
11053;BME280;55230;42.602;23.470;2023-01-31T01:58:51;92585.69;;;-4.04;86.74
11053;BME280;55230;42.602;23.470;2023-01-31T02:01:19;93047.22;;;-1.21;84.02
11053;BME280;55230;42.602;23.470;2023-01-31T02:03:48;92952.88;;;-1.45;82.69
11053;BME280;55230;42.602;23.470;2023-01-31T02:06:16;93004.81;;;-0.99;83.05
11053;BME280;55230;42.602;23.470;2023-01-31T02:08:43;92972.88;;;-1.37;81.69
11053;BME280;55230;42.602;23.470;2023-01-31T02:11:16;93024.81;;;-0.91;80.19
11053;BME280;55230;42.602;23.470;2023-01-31T02:13:46;92981.81;;;-1.09;79.66
11053;BME280;55230;42.602;23.470;2023-01-31T02:16:15;93005.06;;;-0.69;78.01
11053;BME280;55230;42.602;23.470;2023-01-31T02:18:42;93011.47;;;-0.70;79.91
11053;BME280;55230;42.602;23.470;2023-01-31T02:30:41;92954.44;;;-1.51;83.62
11053;BME280;55230;42.602;23.470;2023-01-31T02:33:20;93023.81;;;-1.19;83.65
11053;BME280;55230;42.602;23.470;2023-01-31T02:35:57;92902.50;;;-1.96;82.63
11053;BME280;55230;42.602;23.470;2023-01-31T02:38:36;92903.66;;;-2.04;81.87
11053;BME280;55230;42.602;23.470;2023-01-31T02:41:14;92882.13;;;-2.02;80.56
11053;BME280;55230;42.602;23.470;2023-01-31T02:43:46;93022.66;;;-1.14;80.09
11053;BME280;55230;42.602;23.470;2023-01-31T02:46:37;93007.22;;;-1.23;77.31
11053;BME280;55230;42.602;23.470;2023-01-31T02:49:14;92647.38;;;-3.70;77.49
11053;BME280;55230;42.602;23.470;2023-01-31T02:52:02;92967.69;;;-1.58;77.70
11053;BME280;55230;42.602;23.470;2023-01-31T02:54:45;93001.09;;;-1.09;77.23
11053;BME280;55230;42.602;23.470;2023-01-31T02:57:31;93050.13;;;-0.83;77.42
11053;BME280;55230;42.602;23.470;2023-01-31T02:59:58;93043.28;;;-0.84;77.72
11053;BME280;55230;42.602;23.470;2023-01-31T03:02:26;93055.41;;;-0.83;78.55
11053;BME280;55230;42.602;23.470;2023-01-31T03:04:54;92987.28;;;-1.52;76.70
11053;BME280;55230;42.602;23.470;2023-01-31T03:07:22;93062.56;;;-0.77;76.52
11053;BME280;55230;42.602;23.470;2023-01-31T03:10:01;93074.28;;;-0.74;76.80
11053;BME280;55230;42.602;23.470;2023-01-31T03:15:26;93073.47;;;-0.64;76.63
11053;BME280;55230;42.602;23.470;2023-01-31T03:18:17;93091.22;;;-0.61;78.08
11053;BME280;55230;42.602;23.470;2023-01-31T03:20:52;93099.97;;;-0.68;78.54
11053;BME280;55230;42.602;23.470;2023-01-31T03:23:23;93093.91;;;-0.68;79.98
11053;BME280;55230;42.602;23.470;2023-01-31T03:25:55;93070.53;;;-0.87;81.13
11053;BME280;55230;42.602;23.470;2023-01-31T03:28:28;92972.59;;;-1.67;81.23
11053;BME280;55230;42.602;23.470;2023-01-31T03:31:00;93020.78;;;-1.24;82.56
11053;BME280;55230;42.602;23.470;2023-01-31T03:33:31;92773.78;;;-2.96;82.69
11053;BME280;55230;42.602;23.470;2023-01-31T03:36:05;93079.31;;;-1.04;83.66
11053;BME280;55230;42.602;23.470;2023-01-31T03:38:43;93000.47;;;-1.48;83.26
11053;BME280;55230;42.602;23.470;2023-01-31T03:41:18;93013.38;;;-1.54;84.30
11053;BME280;55230;42.602;23.470;2023-01-31T03:43:54;93087.28;;;-1.19;86.14
11053;BME280;55230;42.602;23.470;2023-01-31T03:46:26;93110.66;;;-1.06;86.75
11053;BME280;55230;42.602;23.470;2023-01-31T03:48:57;93110.69;;;-1.13;87.24
11053;BME280;55230;42.602;23.470;2023-01-31T03:51:30;93020.22;;;-1.95;88.05
11053;BME280;55230;42.602;23.470;2023-01-31T03:54:00;93123.59;;;-1.26;89.26
11053;BME280;55230;42.602;23.470;2023-01-31T03:56:33;93123.91;;;-1.17;89.82
11053;BME280;55230;42.602;23.470;2023-01-31T03:59:07;92732.38;;;-3.76;90.00
11053;BME280;55230;42.602;23.470;2023-01-31T04:01:37;93121.28;;;-1.21;90.68
11053;BME280;55230;42.602;23.470;2023-01-31T04:04:08;93128.50;;;-1.25;91.21
11053;BME280;55230;42.602;23.470;2023-01-31T04:06:37;93041.34;;;-2.02;92.31
11053;BME280;55230;42.602;23.470;2023-01-31T04:09:05;93125.50;;;-1.48;93.54
11053;BME280;55230;42.602;23.470;2023-01-31T04:11:36;93111.09;;;-1.22;94.17
11053;BME280;55230;42.602;23.470;2023-01-31T04:14:03;93030.03;;;-1.85;95.49
11053;BME280;55230;42.602;23.470;2023-01-31T04:16:30;92832.19;;;-3.11;95.82
11053;BME280;55230;42.602;23.470;2023-01-31T04:18:57;93085.84;;;-1.44;96.68
11053;BME280;55230;42.602;23.470;2023-01-31T04:21:24;92697.75;;;-4.17;96.72
11053;BME280;55230;42.602;23.470;2023-01-31T04:23:52;93010.78;;;-1.82;97.35
11053;BME280;55230;42.602;23.470;2023-01-31T04:26:18;93017.16;;;-1.72;97.57
11053;BME280;55230;42.602;23.470;2023-01-31T04:28:45;93124.25;;;-0.97;97.73
11053;BME280;55230;42.602;23.470;2023-01-31T04:31:12;93139.38;;;-1.01;97.93
11053;BME280;55230;42.602;23.470;2023-01-31T04:33:39;93114.50;;;-1.29;98.23
11053;BME280;55230;42.602;23.470;2023-01-31T04:36:06;93060.56;;;-1.59;98.07
11053;BME280;55230;42.602;23.470;2023-01-31T04:38:33;92992.28;;;-1.89;98.53
11053;BME280;55230;42.602;23.470;2023-01-31T04:41:02;92782.47;;;-3.30;98.78
11053;BME280;55230;42.602;23.470;2023-01-31T04:43:28;93135.25;;;-1.17;98.84
11053;BME280;55230;42.602;23.470;2023-01-31T04:45:55;92730.13;;;-3.92;99.32
11053;BME280;55230;42.602;23.470;2023-01-31T04:48:22;93155.25;;;-0.98;100.00
11053;BME280;55230;42.602;23.470;2023-01-31T04:50:49;93213.47;;;-1.01;100.00
11053;BME280;55230;42.602;23.470;2023-01-31T04:53:15;92952.38;;;-2.61;100.00
11053;BME280;55230;42.602;23.470;2023-01-31T04:55:42;92989.34;;;-2.33;100.00
11053;BME280;55230;42.602;23.470;2023-01-31T04:58:10;93108.47;;;-1.40;100.00
11053;BME280;55230;42.602;23.470;2023-01-31T05:00:37;92815.19;;;-3.67;100.00
11053;BME280;55230;42.602;23.470;2023-01-31T05:03:04;93103.94;;;-1.43;100.00
11053;BME280;55230;42.602;23.470;2023-01-31T05:05:31;93170.41;;;-1.05;100.00
11053;BME280;55230;42.602;23.470;2023-01-31T05:07:58;92793.38;;;-3.57;100.00
11053;BME280;55230;42.602;23.470;2023-01-31T05:10:25;92735.34;;;-4.16;100.00
11053;BME280;55230;42.602;23.470;2023-01-31T05:12:52;92992.31;;;-2.31;100.00
11053;BME280;55230;42.602;23.470;2023-01-31T05:15:20;93118.34;;;-1.51;100.00
11053;BME280;55230;42.602;23.470;2023-01-31T05:17:50;93079.06;;;-1.66;100.00
11053;BME280;55230;42.602;23.470;2023-01-31T05:20:18;93124.72;;;-1.45;100.00
11053;BME280;55230;42.602;23.470;2023-01-31T05:22:46;93082.84;;;-1.74;100.00
11053;BME280;55230;42.602;23.470;2023-01-31T05:25:13;93111.16;;;-1.96;100.00
11053;BME280;55230;42.602;23.470;2023-01-31T05:27:40;93153.00;;;-1.10;100.00
11053;BME280;55230;42.602;23.470;2023-01-31T05:30:11;92920.66;;;-3.14;100.00
11053;BME280;55230;42.602;23.470;2023-01-31T05:32:39;93188.53;;;-1.14;100.00
11053;BME280;55230;42.602;23.470;2023-01-31T05:35:06;93114.56;;;-1.64;100.00
11053;BME280;55230;42.602;23.470;2023-01-31T05:37:33;93056.47;;;-1.99;100.00
11053;BME280;55230;42.602;23.470;2023-01-31T05:40:00;93189.66;;;-1.01;100.00
11053;BME280;55230;42.602;23.470;2023-01-31T05:42:27;93151.53;;;-1.32;100.00
11053;BME280;55230;42.602;23.470;2023-01-31T05:44:53;93191.91;;;-0.96;100.00
11053;BME280;55230;42.602;23.470;2023-01-31T05:47:20;93113.78;;;-1.47;100.00
11053;BME280;55230;42.602;23.470;2023-01-31T05:49:49;93199.47;;;-0.95;100.00
11053;BME280;55230;42.602;23.470;2023-01-31T05:52:15;93129.63;;;-1.36;100.00
11053;BME280;55230;42.602;23.470;2023-01-31T05:54:42;93142.81;;;-1.19;100.00
11053;BME280;55230;42.602;23.470;2023-01-31T05:57:09;93137.16;;;-1.21;100.00
11053;BME280;55230;42.602;23.470;2023-01-31T05:59:36;93186.97;;;-0.80;100.00
11053;BME280;55230;42.602;23.470;2023-01-31T06:02:02;93200.97;;;-0.80;100.00
11053;BME280;55230;42.602;23.470;2023-01-31T06:04:29;93159.81;;;-1.05;100.00
11053;BME280;55230;42.602;23.470;2023-01-31T06:06:57;93119.06;;;-1.40;100.00
11053;BME280;55230;42.602;23.470;2023-01-31T06:09:24;93197.16;;;-0.75;100.00
11053;BME280;55230;42.602;23.470;2023-01-31T06:11:51;93204.31;;;-0.72;100.00
11053;BME280;55230;42.602;23.470;2023-01-31T06:14:17;93194.50;;;-0.68;100.00
11053;BME280;55230;42.602;23.470;2023-01-31T06:16:44;93199.38;;;-0.60;100.00
11053;BME280;55230;42.602;23.470;2023-01-31T06:19:11;93203.16;;;-0.57;100.00
11053;BME280;55230;42.602;23.470;2023-01-31T06:21:37;93207.31;;;-0.56;100.00
11053;BME280;55230;42.602;23.470;2023-01-31T06:24:06;93175.59;;;-0.70;100.00
11053;BME280;55230;42.602;23.470;2023-01-31T06:26:33;93225.81;;;-0.49;100.00
11053;BME280;55230;42.602;23.470;2023-01-31T06:29:00;93164.63;;;-0.79;99.80
11053;BME280;55230;42.602;23.470;2023-01-31T06:31:26;93038.66;;;-1.53;100.00
11053;BME280;55230;42.602;23.470;2023-01-31T06:33:53;93177.06;;;-0.59;99.66
11053;BME280;55230;42.602;23.470;2023-01-31T06:36:20;93178.56;;;-0.54;100.00
11053;BME280;55230;42.602;23.470;2023-01-31T06:38:50;93207.25;;;-0.39;99.95
11053;BME280;55230;42.602;23.470;2023-01-31T06:41:19;93229.50;;;-0.26;99.85
11053;BME280;55230;42.602;23.470;2023-01-31T06:43:46;93081.22;;;-1.16;99.93
11053;BME280;55230;42.602;23.470;2023-01-31T06:46:13;93145.72;;;-0.71;100.00
11053;BME280;55230;42.602;23.470;2023-01-31T06:48:39;93204.91;;;-0.19;99.37
11053;BME280;55230;42.602;23.470;2023-01-31T06:51:06;93210.50;;;-0.07;98.98
11053;BME280;55230;42.602;23.470;2023-01-31T06:53:33;93212.78;;;-0.09;99.40
11053;BME280;55230;42.602;23.470;2023-01-31T06:56:00;93177.69;;;-0.30;98.85
11053;BME280;55230;42.602;23.470;2023-01-31T06:58:28;93207.94;;;-0.24;99.13
11053;BME280;55230;42.602;23.470;2023-01-31T07:00:55;93139.19;;;-0.45;100.00
11053;BME280;55230;42.602;23.470;2023-01-31T07:03:23;93209.03;;;-0.11;99.84
11053;BME280;55230;42.602;23.470;2023-01-31T07:05:49;93106.06;;;-0.78;99.24
11053;BME280;55230;42.602;23.470;2023-01-31T07:08:16;93207.09;;;0.00;99.32
11053;BME280;55230;42.602;23.470;2023-01-31T07:10:43;93045.66;;;-0.97;98.93
11053;BME280;55230;42.602;23.470;2023-01-31T07:13:10;93163.66;;;-0.20;97.80
11053;BME280;55230;42.602;23.470;2023-01-31T07:15:38;93227.41;;;0.24;98.35
11053;BME280;55230;42.602;23.470;2023-01-31T07:18:04;93216.75;;;0.28;97.65
11053;BME280;55230;42.602;23.470;2023-01-31T07:20:31;93198.63;;;0.16;97.23
11053;BME280;55230;42.602;23.470;2023-01-31T07:22:59;93188.16;;;-0.02;97.06
11053;BME280;55230;42.602;23.470;2023-01-31T07:25:26;92896.84;;;-1.98;96.55
11053;BME280;55230;42.602;23.470;2023-01-31T07:27:55;93207.59;;;0.39;95.67
11053;BME280;55230;42.602;23.470;2023-01-31T07:30:22;93119.38;;;-0.23;95.37
11053;BME280;55230;42.602;23.470;2023-01-31T07:32:50;93190.31;;;0.17;95.60
11053;BME280;55230;42.602;23.470;2023-01-31T07:35:17;93056.84;;;-0.72;95.57
11053;BME280;55230;42.602;23.470;2023-01-31T07:37:43;93134.47;;;-0.13;95.52
11053;BME280;55230;42.602;23.470;2023-01-31T07:40:11;93198.72;;;0.09;96.29
11053;BME280;55230;42.602;23.470;2023-01-31T07:42:39;93234.94;;;0.29;96.61
11053;BME280;55230;42.602;23.470;2023-01-31T07:45:07;93152.63;;;-0.15;97.08
11053;BME280;55230;42.602;23.470;2023-01-31T07:47:35;93221.22;;;0.45;96.30
11053;BME280;55230;42.602;23.470;2023-01-31T07:50:04;93094.41;;;-0.22;95.95
11053;BME280;55230;42.602;23.470;2023-01-31T07:52:31;93219.19;;;0.59;95.55
11053;BME280;55230;42.602;23.470;2023-01-31T07:54:58;93233.19;;;0.63;96.48
11053;BME280;55230;42.602;23.470;2023-01-31T07:57:25;93183.31;;;0.44;96.78
11053;BME280;55230;42.602;23.470;2023-01-31T07:59:51;93062.66;;;-0.29;95.38
11053;BME280;55230;42.602;23.470;2023-01-31T08:02:18;92952.34;;;-1.08;95.44
11053;BME280;55230;42.602;23.470;2023-01-31T08:05:04;92799.91;;;-2.08;95.32
11053;BME280;55230;42.602;23.470;2023-01-31T08:07:31;93174.72;;;0.26;96.19
11053;BME280;55230;42.602;23.470;2023-01-31T08:09:58;93236.94;;;0.69;96.58
11053;BME280;55230;42.602;23.470;2023-01-31T08:12:24;93186.38;;;0.43;96.93
11053;BME280;55230;42.602;23.470;2023-01-31T08:14:51;93164.75;;;0.44;96.30
11053;BME280;55230;42.602;23.470;2023-01-31T08:17:18;93159.50;;;0.37;96.47
11053;BME280;55230;42.602;23.470;2023-01-31T08:19:45;93082.88;;;0.02;95.82
11053;BME280;55230;42.602;23.470;2023-01-31T08:22:13;93223.16;;;0.85;96.22
11053;BME280;55230;42.602;23.470;2023-01-31T08:24:40;93202.34;;;0.80;96.34
11053;BME280;55230;42.602;23.470;2023-01-31T08:27:06;93199.16;;;0.99;96.05
11053;BME280;55230;42.602;23.470;2023-01-31T08:29:33;93156.38;;;0.49;95.59
11053;BME280;55230;42.602;23.470;2023-01-31T08:32:00;93266.03;;;1.31;95.82
11053;BME280;55230;42.602;23.470;2023-01-31T08:34:27;93225.75;;;0.92;95.68
11053;BME280;55230;42.602;23.470;2023-01-31T08:36:54;93209.00;;;0.54;96.16
11053;BME280;55230;42.602;23.470;2023-01-31T08:39:22;93186.72;;;0.45;97.38
11053;BME280;55230;42.602;23.470;2023-01-31T08:41:49;93105.25;;;-0.03;96.33
11053;BME280;55230;42.602;23.470;2023-01-31T08:44:16;93248.50;;;0.96;95.92
11053;BME280;55230;42.602;23.470;2023-01-31T08:46:42;93258.06;;;0.83;96.13
11053;BME280;55230;42.602;23.470;2023-01-31T08:49:10;92964.69;;;-0.87;95.33
11053;BME280;55230;42.602;23.470;2023-01-31T08:51:37;93151.50;;;0.44;94.76
11053;BME280;55230;42.602;23.470;2023-01-31T08:54:04;93211.78;;;0.88;93.85
11053;BME280;55230;42.602;23.470;2023-01-31T08:56:32;93020.63;;;-0.27;93.46
11053;BME280;55230;42.602;23.470;2023-01-31T08:58:58;93226.88;;;0.94;93.81
11053;BME280;55230;42.602;23.470;2023-01-31T09:01:26;93232.09;;;1.05;94.09
11053;BME280;55230;42.602;23.470;2023-01-31T09:03:53;93275.25;;;1.12;94.27
11053;BME280;55230;42.602;23.470;2023-01-31T09:06:24;93119.97;;;0.02;95.29
11053;BME280;55230;42.602;23.470;2023-01-31T09:08:52;93159.22;;;0.21;95.63
11053;BME280;55230;42.602;23.470;2023-01-31T09:11:20;93061.03;;;-0.13;95.54
11053;BME280;55230;42.602;23.470;2023-01-31T09:13:48;93288.84;;;1.22;95.42
11053;BME280;55230;42.602;23.470;2023-01-31T09:16:17;93255.59;;;1.47;94.45
11053;BME280;55230;42.602;23.470;2023-01-31T09:18:44;93258.59;;;1.53;92.96
11053;BME280;55230;42.602;23.470;2023-01-31T09:21:12;93246.25;;;1.36;92.98
11053;BME280;55230;42.602;23.470;2023-01-31T09:23:40;93255.59;;;1.84;92.34
11053;BME280;55230;42.602;23.470;2023-01-31T09:26:07;93238.63;;;1.38;91.18
11053;BME280;55230;42.602;23.470;2023-01-31T09:28:34;93037.34;;;0.14;91.09
11053;BME280;55230;42.602;23.470;2023-01-31T09:31:03;93183.25;;;0.95;89.49
11053;BME280;55230;42.602;23.470;2023-01-31T09:33:31;93243.41;;;1.87;89.93
11053;BME280;55230;42.602;23.470;2023-01-31T09:36:00;93231.31;;;1.45;87.86
11053;BME280;55230;42.602;23.470;2023-01-31T09:38:27;93253.78;;;2.08;87.16
11053;BME280;55230;42.602;23.470;2023-01-31T09:40:55;93196.28;;;1.91;86.98
11053;BME280;55230;42.602;23.470;2023-01-31T09:43:25;93261.97;;;2.24;87.06
11053;BME280;55230;42.602;23.470;2023-01-31T09:45:57;93229.91;;;2.34;85.95
11053;BME280;55230;42.602;23.470;2023-01-31T09:48:28;93230.28;;;2.33;85.19
11053;BME280;55230;42.602;23.470;2023-01-31T09:50:59;93218.41;;;2.41;85.14
11053;BME280;55230;42.602;23.470;2023-01-31T09:53:30;93230.28;;;2.33;84.95
11053;BME280;55230;42.602;23.470;2023-01-31T09:56:13;93040.25;;;1.01;84.32
11053;BME280;55230;42.602;23.470;2023-01-31T09:58:49;93207.63;;;1.61;85.48
11053;BME280;55230;42.602;23.470;2023-01-31T10:01:23;93213.31;;;1.93;86.59
11053;BME280;55230;42.602;23.470;2023-01-31T10:04:19;93222.66;;;1.75;85.71
11053;BME280;55230;42.602;23.470;2023-01-31T10:06:53;92991.50;;;0.54;86.93
11053;BME280;55230;42.602;23.470;2023-01-31T10:09:27;93219.13;;;2.15;87.04
11053;BME280;55230;42.602;23.470;2023-01-31T10:11:58;93185.56;;;1.98;84.94
11053;BME280;55230;42.602;23.470;2023-01-31T10:14:32;92684.13;;;-1.62;86.96
11053;BME280;55230;42.602;23.470;2023-01-31T10:17:06;93118.41;;;1.64;87.09
11053;BME280;55230;42.602;23.470;2023-01-31T10:19:43;93039.97;;;1.26;85.99
11053;BME280;55230;42.602;23.470;2023-01-31T10:22:14;93203.81;;;2.26;85.91
11053;BME280;55230;42.602;23.470;2023-01-31T10:24:46;93189.88;;;1.85;86.85
11053;BME280;55230;42.602;23.470;2023-01-31T10:27:17;93211.16;;;1.51;89.43
11053;BME280;55230;42.602;23.470;2023-01-31T10:29:49;93210.56;;;1.37;90.98
11053;BME280;55230;42.602;23.470;2023-01-31T10:32:23;93180.53;;;1.02;89.97
11053;BME280;55230;42.602;23.470;2023-01-31T10:34:55;93187.78;;;0.98;90.52
11053;BME280;55230;42.602;23.470;2023-01-31T10:37:29;93100.69;;;0.49;90.42
11053;BME280;55230;42.602;23.470;2023-01-31T10:40:03;93202.25;;;1.35;91.37
11053;BME280;55230;42.602;23.470;2023-01-31T10:42:31;92987.50;;;-0.02;91.24
11053;BME280;55230;42.602;23.470;2023-01-31T10:45:01;93171.16;;;1.32;89.96
11053;BME280;55230;42.602;23.470;2023-01-31T10:47:32;93140.88;;;1.26;89.27
11053;BME280;55230;42.602;23.470;2023-01-31T10:50:04;93162.31;;;1.04;89.67
11053;BME280;55230;42.602;23.470;2023-01-31T10:55:54;93191.72;;;1.24;90.02
11053;BME280;55230;42.602;23.470;2023-01-31T10:58:24;92824.56;;;-1.56;89.05
11053;BME280;55230;42.602;23.470;2023-01-31T11:00:51;93198.56;;;1.22;90.08
11053;BME280;55230;42.602;23.470;2023-01-31T11:03:19;93216.16;;;1.08;90.86
11053;BME280;55230;42.602;23.470;2023-01-31T11:05:50;93194.81;;;1.19;91.32
11053;BME280;55230;42.602;23.470;2023-01-31T11:08:24;93191.75;;;1.21;91.63
11053;BME280;55230;42.602;23.470;2023-01-31T11:10:55;93124.72;;;0.72;91.45
11053;BME280;55230;42.602;23.470;2023-01-31T11:13:22;93190.28;;;1.16;92.11
11053;BME280;55230;42.602;23.470;2023-01-31T11:15:50;92986.25;;;-0.34;92.24
11053;BME280;55230;42.602;23.470;2023-01-31T11:18:25;93141.25;;;0.87;92.71
11053;BME280;55230;42.602;23.470;2023-01-31T11:20:57;93189.88;;;1.17;93.17
11053;BME280;55230;42.602;23.470;2023-01-31T11:23:28;93187.22;;;1.17;92.48
11053;BME280;55230;42.602;23.470;2023-01-31T11:25:56;93149.38;;;0.69;93.62
11053;BME280;55230;42.602;23.470;2023-01-31T11:28:27;92835.75;;;-1.35;93.61
11053;BME280;55230;42.602;23.470;2023-01-31T11:30:59;92888.41;;;-0.99;93.84
11053;BME280;55230;42.602;23.470;2023-01-31T11:33:37;93190.41;;;1.02;95.30
11053;BME280;55230;42.602;23.470;2023-01-31T11:36:09;93185.06;;;1.05;94.68
11053;BME280;55230;42.602;23.470;2023-01-31T11:38:36;93097.66;;;0.47;94.43
11053;BME280;55230;42.602;23.470;2023-01-31T11:41:26;93027.28;;;-0.05;94.61
11053;BME280;55230;42.602;23.470;2023-01-31T11:44:06;93189.59;;;1.08;95.39
11053;BME280;55230;42.602;23.470;2023-01-31T11:46:41;93078.09;;;0.34;96.54
11053;BME280;55230;42.602;23.470;2023-01-31T11:49:13;93193.56;;;0.86;97.52
11053;BME280;55230;42.602;23.470;2023-01-31T11:51:43;93152.03;;;0.69;98.89
11053;BME280;55230;42.602;23.470;2023-01-31T11:54:13;93181.41;;;0.92;98.67
11053;BME280;55230;42.602;23.470;2023-01-31T11:56:42;93144.56;;;0.57;99.79
11053;BME280;55230;42.602;23.470;2023-01-31T11:59:13;93176.88;;;0.89;99.93
11053;BME280;55230;42.602;23.470;2023-01-31T12:01:44;93164.88;;;0.74;100.00
11053;BME280;55230;42.602;23.470;2023-01-31T12:04:15;93201.19;;;0.84;100.00
11053;BME280;55230;42.602;23.470;2023-01-31T12:06:56;93155.03;;;0.71;100.00
11053;BME280;55230;42.602;23.470;2023-01-31T12:09:25;92995.47;;;-0.53;100.00
11053;BME280;55230;42.602;23.470;2023-01-31T12:11:54;93166.28;;;0.38;100.00
11053;BME280;55230;42.602;23.470;2023-01-31T12:14:22;93134.25;;;0.22;100.00
11053;BME280;55230;42.602;23.470;2023-01-31T12:16:53;93186.47;;;0.29;100.00
11053;BME280;55230;42.602;23.470;2023-01-31T12:19:33;93151.16;;;0.39;100.00
11053;BME280;55230;42.602;23.470;2023-01-31T12:22:08;93205.13;;;0.66;100.00
11053;BME280;55230;42.602;23.470;2023-01-31T12:24:45;93125.09;;;0.27;100.00
11053;BME280;55230;42.602;23.470;2023-01-31T12:27:23;93174.72;;;0.77;100.00
11053;BME280;55230;42.602;23.470;2023-01-31T12:30:03;93099.34;;;0.27;100.00
11053;BME280;55230;42.602;23.470;2023-01-31T12:32:48;93175.50;;;0.71;100.00
11053;BME280;55230;42.602;23.470;2023-01-31T12:35:29;93135.78;;;0.16;100.00
11053;BME280;55230;42.602;23.470;2023-01-31T12:38:10;93177.44;;;0.70;100.00
11053;BME280;55230;42.602;23.470;2023-01-31T12:40:47;93173.63;;;0.71;100.00
11053;BME280;55230;42.602;23.470;2023-01-31T12:43:26;93182.38;;;0.68;100.00
11053;BME280;55230;42.602;23.470;2023-01-31T12:46:05;92878.19;;;-1.59;100.00
11053;BME280;55230;42.602;23.470;2023-01-31T12:48:49;93197.97;;;0.59;100.00
11053;BME280;55230;42.602;23.470;2023-01-31T12:51:29;93181.63;;;0.64;100.00
11053;BME280;55230;42.602;23.470;2023-01-31T12:54:13;93048.66;;;-0.26;100.00
11053;BME280;55230;42.602;23.470;2023-01-31T12:56:51;93183.53;;;0.67;100.00
11053;BME280;55230;42.602;23.470;2023-01-31T12:59:32;93182.31;;;0.75;100.00
11053;BME280;55230;42.602;23.470;2023-01-31T13:02:14;93091.75;;;0.33;100.00
11053;BME280;55230;42.602;23.470;2023-01-31T13:04:47;93188.09;;;1.07;100.00
11053;BME280;55230;42.602;23.470;2023-01-31T13:07:19;93068.84;;;0.49;99.75
11053;BME280;55230;42.602;23.470;2023-01-31T13:09:51;93152.56;;;0.94;99.11
11053;BME280;55230;42.602;23.470;2023-01-31T13:12:21;93186.38;;;1.28;98.99
11053;BME280;55230;42.602;23.470;2023-01-31T13:14:57;93169.03;;;1.16;99.76
11053;BME280;55230;42.602;23.470;2023-01-31T13:17:30;93187.38;;;1.03;100.00
11053;BME280;55230;42.602;23.470;2023-01-31T13:20:02;93189.31;;;0.99;100.00
11053;BME280;55230;42.602;23.470;2023-01-31T13:22:38;93146.44;;;0.60;100.00